sensor_id;sensor_type;location;lat;lon;timestamp;P1;durP1;ratioP1;P2;durP2;ratioP2
29422;SDS011;16399;51.686;8.684;2023-09-18T00:00:29;10.98;;;4.20;;
29422;SDS011;16399;51.686;8.684;2023-09-18T00:03:33;7.60;;;4.25;;
29422;SDS011;16399;51.686;8.684;2023-09-18T00:06:35;10.65;;;4.87;;
29422;SDS011;16399;51.686;8.684;2023-09-18T00:09:37;9.30;;;4.33;;
29422;SDS011;16399;51.686;8.684;2023-09-18T00:12:40;8.05;;;4.33;;
29422;SDS011;16399;51.686;8.684;2023-09-18T00:15:42;9.35;;;4.22;;
29422;SDS011;16399;51.686;8.684;2023-09-18T00:18:49;10.30;;;4.10;;
29422;SDS011;16399;51.686;8.684;2023-09-18T00:21:51;6.22;;;3.67;;
29422;SDS011;16399;51.686;8.684;2023-09-18T00:24:54;8.53;;;4.05;;
29422;SDS011;16399;51.686;8.684;2023-09-18T00:27:57;9.85;;;4.50;;
29422;SDS011;16399;51.686;8.684;2023-09-18T00:30:59;8.73;;;4.05;;
29422;SDS011;16399;51.686;8.684;2023-09-18T00:34:01;8.63;;;3.80;;
29422;SDS011;16399;51.686;8.684;2023-09-18T00:37:04;10.05;;;4.22;;
29422;SDS011;16399;51.686;8.684;2023-09-18T00:40:06;10.08;;;4.20;;
29422;SDS011;16399;51.686;8.684;2023-09-18T00:43:09;9.85;;;4.20;;
29422;SDS011;16399;51.686;8.684;2023-09-18T00:46:11;8.88;;;4.20;;
29422;SDS011;16399;51.686;8.684;2023-09-18T00:49:15;7.58;;;3.75;;
29422;SDS011;16399;51.686;8.684;2023-09-18T00:52:17;8.53;;;4.10;;
29422;SDS011;16399;51.686;8.684;2023-09-18T00:55:22;9.93;;;3.70;;
29422;SDS011;16399;51.686;8.684;2023-09-18T00:58:24;11.38;;;4.15;;
29422;SDS011;16399;51.686;8.684;2023-09-18T01:01:27;8.98;;;4.05;;
29422;SDS011;16399;51.686;8.684;2023-09-18T01:04:30;9.68;;;4.05;;
29422;SDS011;16399;51.686;8.684;2023-09-18T01:07:34;8.93;;;4.00;;
29422;SDS011;16399;51.686;8.684;2023-09-18T01:10:40;9.30;;;4.28;;
29422;SDS011;16399;51.686;8.684;2023-09-18T01:13:49;7.72;;;4.12;;
29422;SDS011;16399;51.686;8.684;2023-09-18T01:16:53;6.42;;;3.62;;
29422;SDS011;16399;51.686;8.684;2023-09-18T01:19:56;7.15;;;3.60;;
29422;SDS011;16399;51.686;8.684;2023-09-18T01:22:58;8.35;;;3.85;;
29422;SDS011;16399;51.686;8.684;2023-09-18T01:26:01;8.68;;;3.85;;
29422;SDS011;16399;51.686;8.684;2023-09-18T01:29:03;7.05;;;4.10;;
29422;SDS011;16399;51.686;8.684;2023-09-18T01:32:05;7.78;;;3.85;;
29422;SDS011;16399;51.686;8.684;2023-09-18T01:35:07;11.10;;;4.22;;
29422;SDS011;16399;51.686;8.684;2023-09-18T01:38:11;9.50;;;4.08;;
29422;SDS011;16399;51.686;8.684;2023-09-18T01:41:14;7.15;;;3.27;;
29422;SDS011;16399;51.686;8.684;2023-09-18T01:44:16;9.13;;;3.90;;
29422;SDS011;16399;51.686;8.684;2023-09-18T01:47:19;12.58;;;4.42;;
29422;SDS011;16399;51.686;8.684;2023-09-18T01:50:27;7.30;;;3.45;;
29422;SDS011;16399;51.686;8.684;2023-09-18T01:53:29;10.70;;;4.22;;
29422;SDS011;16399;51.686;8.684;2023-09-18T01:56:32;8.53;;;3.65;;
29422;SDS011;16399;51.686;8.684;2023-09-18T01:59:34;9.70;;;3.70;;
29422;SDS011;16399;51.686;8.684;2023-09-18T02:02:36;9.63;;;3.92;;
29422;SDS011;16399;51.686;8.684;2023-09-18T02:05:39;8.10;;;3.92;;
29422;SDS011;16399;51.686;8.684;2023-09-18T02:08:42;9.63;;;4.15;;
29422;SDS011;16399;51.686;8.684;2023-09-18T02:11:45;8.28;;;3.72;;
29422;SDS011;16399;51.686;8.684;2023-09-18T02:14:49;9.85;;;3.85;;
29422;SDS011;16399;51.686;8.684;2023-09-18T02:17:52;10.20;;;3.70;;
29422;SDS011;16399;51.686;8.684;2023-09-18T02:20:54;9.18;;;3.70;;
29422;SDS011;16399;51.686;8.684;2023-09-18T02:23:56;11.93;;;4.05;;
29422;SDS011;16399;51.686;8.684;2023-09-18T02:26:59;8.73;;;3.47;;
29422;SDS011;16399;51.686;8.684;2023-09-18T02:30:01;6.87;;;4.15;;
29422;SDS011;16399;51.686;8.684;2023-09-18T02:33:03;8.38;;;4.17;;
29422;SDS011;16399;51.686;8.684;2023-09-18T02:36:06;9.53;;;3.92;;
29422;SDS011;16399;51.686;8.684;2023-09-18T02:39:08;8.55;;;3.95;;
29422;SDS011;16399;51.686;8.684;2023-09-18T02:42:10;10.28;;;4.70;;
29422;SDS011;16399;51.686;8.684;2023-09-18T02:45:13;8.23;;;4.00;;
29422;SDS011;16399;51.686;8.684;2023-09-18T02:48:15;7.10;;;3.67;;
29422;SDS011;16399;51.686;8.684;2023-09-18T02:51:18;8.53;;;4.20;;
29422;SDS011;16399;51.686;8.684;2023-09-18T02:54:20;7.78;;;3.95;;
29422;SDS011;16399;51.686;8.684;2023-09-18T02:57:22;7.25;;;3.65;;
29422;SDS011;16399;51.686;8.684;2023-09-18T03:00:24;7.70;;;3.67;;
29422;SDS011;16399;51.686;8.684;2023-09-18T03:03:27;7.65;;;3.80;;
29422;SDS011;16399;51.686;8.684;2023-09-18T03:06:29;9.75;;;4.30;;
29422;SDS011;16399;51.686;8.684;2023-09-18T03:09:31;5.53;;;3.75;;
29422;SDS011;16399;51.686;8.684;2023-09-18T03:12:34;6.85;;;3.42;;
29422;SDS011;16399;51.686;8.684;2023-09-18T03:15:36;8.85;;;3.52;;
29422;SDS011;16399;51.686;8.684;2023-09-18T03:18:39;6.60;;;3.27;;
29422;SDS011;16399;51.686;8.684;2023-09-18T03:21:41;11.97;;;5.00;;
29422;SDS011;16399;51.686;8.684;2023-09-18T03:24:43;6.87;;;3.72;;
29422;SDS011;16399;51.686;8.684;2023-09-18T03:27:47;8.43;;;3.60;;
29422;SDS011;16399;51.686;8.684;2023-09-18T03:30:51;7.08;;;3.70;;
29422;SDS011;16399;51.686;8.684;2023-09-18T03:33:53;6.55;;;3.77;;
29422;SDS011;16399;51.686;8.684;2023-09-18T03:36:55;8.73;;;4.00;;
29422;SDS011;16399;51.686;8.684;2023-09-18T03:39:57;6.62;;;4.10;;
29422;SDS011;16399;51.686;8.684;2023-09-18T03:43:00;8.05;;;3.77;;
29422;SDS011;16399;51.686;8.684;2023-09-18T03:46:05;10.18;;;3.90;;
29422;SDS011;16399;51.686;8.684;2023-09-18T03:49:08;5.95;;;3.62;;
29422;SDS011;16399;51.686;8.684;2023-09-18T03:52:10;8.05;;;3.72;;
29422;SDS011;16399;51.686;8.684;2023-09-18T03:55:12;7.70;;;3.80;;
29422;SDS011;16399;51.686;8.684;2023-09-18T03:58:15;8.35;;;4.33;;
29422;SDS011;16399;51.686;8.684;2023-09-18T04:01:17;8.45;;;3.83;;
29422;SDS011;16399;51.686;8.684;2023-09-18T04:04:19;7.33;;;3.58;;
29422;SDS011;16399;51.686;8.684;2023-09-18T04:07:22;10.85;;;4.28;;
29422;SDS011;16399;51.686;8.684;2023-09-18T04:10:24;8.30;;;3.85;;
29422;SDS011;16399;51.686;8.684;2023-09-18T04:13:27;10.18;;;3.90;;
29422;SDS011;16399;51.686;8.684;2023-09-18T04:16:30;9.58;;;3.95;;
29422;SDS011;16399;51.686;8.684;2023-09-18T04:19:34;7.97;;;3.90;;
29422;SDS011;16399;51.686;8.684;2023-09-18T04:22:36;8.05;;;3.98;;
29422;SDS011;16399;51.686;8.684;2023-09-18T04:25:41;8.30;;;4.28;;
29422;SDS011;16399;51.686;8.684;2023-09-18T04:28:43;6.37;;;3.80;;
29422;SDS011;16399;51.686;8.684;2023-09-18T04:31:46;7.22;;;3.75;;
29422;SDS011;16399;51.686;8.684;2023-09-18T04:34:48;7.75;;;3.75;;
29422;SDS011;16399;51.686;8.684;2023-09-18T04:37:55;7.00;;;4.20;;
29422;SDS011;16399;51.686;8.684;2023-09-18T04:40:57;8.95;;;3.85;;
29422;SDS011;16399;51.686;8.684;2023-09-18T04:44:00;7.35;;;3.98;;
29422;SDS011;16399;51.686;8.684;2023-09-18T04:47:03;9.28;;;4.37;;
29422;SDS011;16399;51.686;8.684;2023-09-18T04:50:06;6.20;;;3.52;;
29422;SDS011;16399;51.686;8.684;2023-09-18T04:53:09;9.55;;;4.40;;
29422;SDS011;16399;51.686;8.684;2023-09-18T04:56:11;5.22;;;3.45;;
29422;SDS011;16399;51.686;8.684;2023-09-18T04:59:13;8.18;;;3.90;;
29422;SDS011;16399;51.686;8.684;2023-09-18T05:02:16;6.50;;;3.55;;
29422;SDS011;16399;51.686;8.684;2023-09-18T05:05:18;7.37;;;3.52;;
29422;SDS011;16399;51.686;8.684;2023-09-18T05:08:21;6.45;;;3.87;;
29422;SDS011;16399;51.686;8.684;2023-09-18T05:11:24;5.28;;;3.08;;
29422;SDS011;16399;51.686;8.684;2023-09-18T05:14:26;8.80;;;3.65;;
29422;SDS011;16399;51.686;8.684;2023-09-18T05:17:41;9.83;;;3.98;;
29422;SDS011;16399;51.686;8.684;2023-09-18T05:20:47;7.35;;;2.98;;
29422;SDS011;16399;51.686;8.684;2023-09-18T05:23:49;7.30;;;4.22;;
29422;SDS011;16399;51.686;8.684;2023-09-18T05:26:51;10.05;;;3.72;;
29422;SDS011;16399;51.686;8.684;2023-09-18T05:29:53;8.23;;;3.20;;
29422;SDS011;16399;51.686;8.684;2023-09-18T05:32:56;10.32;;;4.20;;
29422;SDS011;16399;51.686;8.684;2023-09-18T05:36:01;6.25;;;3.08;;
29422;SDS011;16399;51.686;8.684;2023-09-18T05:39:03;7.08;;;3.40;;
29422;SDS011;16399;51.686;8.684;2023-09-18T05:42:08;7.50;;;3.67;;
29422;SDS011;16399;51.686;8.684;2023-09-18T05:45:11;10.28;;;4.03;;
29422;SDS011;16399;51.686;8.684;2023-09-18T05:48:14;5.83;;;3.60;;
29422;SDS011;16399;51.686;8.684;2023-09-18T05:51:16;6.50;;;3.30;;
29422;SDS011;16399;51.686;8.684;2023-09-18T05:54:19;5.92;;;3.08;;
29422;SDS011;16399;51.686;8.684;2023-09-18T05:57:21;7.62;;;3.72;;
29422;SDS011;16399;51.686;8.684;2023-09-18T06:00:24;6.45;;;3.00;;
29422;SDS011;16399;51.686;8.684;2023-09-18T06:03:26;6.83;;;3.80;;
29422;SDS011;16399;51.686;8.684;2023-09-18T06:09:32;10.08;;;4.10;;
29422;SDS011;16399;51.686;8.684;2023-09-18T06:12:34;7.83;;;3.33;;
29422;SDS011;16399;51.686;8.684;2023-09-18T06:15:38;7.30;;;3.37;;
29422;SDS011;16399;51.686;8.684;2023-09-18T06:18:40;9.53;;;3.30;;
29422;SDS011;16399;51.686;8.684;2023-09-18T06:21:44;9.17;;;3.10;;
29422;SDS011;16399;51.686;8.684;2023-09-18T06:24:47;5.90;;;2.90;;
29422;SDS011;16399;51.686;8.684;2023-09-18T06:27:49;6.65;;;3.47;;
29422;SDS011;16399;51.686;8.684;2023-09-18T06:30:51;9.43;;;3.35;;
29422;SDS011;16399;51.686;8.684;2023-09-18T06:33:55;7.45;;;3.62;;
29422;SDS011;16399;51.686;8.684;2023-09-18T06:36:58;6.00;;;3.27;;
29422;SDS011;16399;51.686;8.684;2023-09-18T06:40:00;5.85;;;3.35;;
29422;SDS011;16399;51.686;8.684;2023-09-18T06:43:04;6.75;;;3.12;;
29422;SDS011;16399;51.686;8.684;2023-09-18T06:46:07;7.08;;;3.20;;
29422;SDS011;16399;51.686;8.684;2023-09-18T06:49:09;6.75;;;3.55;;
29422;SDS011;16399;51.686;8.684;2023-09-18T06:52:11;8.80;;;3.12;;
29422;SDS011;16399;51.686;8.684;2023-09-18T06:55:14;9.48;;;3.80;;
29422;SDS011;16399;51.686;8.684;2023-09-18T06:58:17;5.65;;;2.90;;
29422;SDS011;16399;51.686;8.684;2023-09-18T07:01:19;6.92;;;3.05;;
29422;SDS011;16399;51.686;8.684;2023-09-18T07:04:22;10.55;;;3.30;;
29422;SDS011;16399;51.686;8.684;2023-09-18T07:07:25;7.55;;;3.15;;
29422;SDS011;16399;51.686;8.684;2023-09-18T07:10:27;6.15;;;2.77;;
29422;SDS011;16399;51.686;8.684;2023-09-18T07:13:29;11.30;;;3.20;;
29422;SDS011;16399;51.686;8.684;2023-09-18T07:16:32;9.65;;;3.33;;
29422;SDS011;16399;51.686;8.684;2023-09-18T07:19:34;6.90;;;2.62;;
29422;SDS011;16399;51.686;8.684;2023-09-18T07:22:37;9.63;;;3.20;;
29422;SDS011;16399;51.686;8.684;2023-09-18T07:25:39;7.97;;;2.92;;
29422;SDS011;16399;51.686;8.684;2023-09-18T07:28:43;7.80;;;2.30;;
29422;SDS011;16399;51.686;8.684;2023-09-18T07:31:46;10.43;;;2.55;;
29422;SDS011;16399;51.686;8.684;2023-09-18T07:34:48;7.22;;;2.22;;
29422;SDS011;16399;51.686;8.684;2023-09-18T07:37:50;8.50;;;2.20;;
29422;SDS011;16399;51.686;8.684;2023-09-18T07:40:52;7.87;;;2.15;;
29422;SDS011;16399;51.686;8.684;2023-09-18T07:43:55;5.08;;;1.90;;
29422;SDS011;16399;51.686;8.684;2023-09-18T07:46:59;5.62;;;2.30;;
29422;SDS011;16399;51.686;8.684;2023-09-18T07:50:02;7.80;;;1.70;;
29422;SDS011;16399;51.686;8.684;2023-09-18T07:53:04;8.10;;;1.82;;
29422;SDS011;16399;51.686;8.684;2023-09-18T07:56:07;7.80;;;2.22;;
29422;SDS011;16399;51.686;8.684;2023-09-18T07:59:10;9.73;;;2.30;;
29422;SDS011;16399;51.686;8.684;2023-09-18T08:02:14;4.50;;;1.80;;
29422;SDS011;16399;51.686;8.684;2023-09-18T08:05:17;6.70;;;1.70;;
29422;SDS011;16399;51.686;8.684;2023-09-18T08:08:21;7.87;;;1.87;;
29422;SDS011;16399;51.686;8.684;2023-09-18T08:11:24;5.53;;;1.95;;
29422;SDS011;16399;51.686;8.684;2023-09-18T08:14:27;12.70;;;1.90;;
29422;SDS011;16399;51.686;8.684;2023-09-18T08:17:29;6.10;;;1.82;;
29422;SDS011;16399;51.686;8.684;2023-09-18T08:20:31;5.08;;;1.57;;
29422;SDS011;16399;51.686;8.684;2023-09-18T08:23:34;6.80;;;1.80;;
29422;SDS011;16399;51.686;8.684;2023-09-18T08:26:36;5.50;;;1.62;;
29422;SDS011;16399;51.686;8.684;2023-09-18T08:29:39;7.53;;;1.72;;
29422;SDS011;16399;51.686;8.684;2023-09-18T08:32:42;5.55;;;1.77;;
29422;SDS011;16399;51.686;8.684;2023-09-18T08:35:44;6.90;;;1.70;;
29422;SDS011;16399;51.686;8.684;2023-09-18T08:38:47;5.08;;;2.02;;
29422;SDS011;16399;51.686;8.684;2023-09-18T08:41:51;5.50;;;1.67;;
29422;SDS011;16399;51.686;8.684;2023-09-18T08:44:55;7.72;;;1.50;;
29422;SDS011;16399;51.686;8.684;2023-09-18T08:48:00;6.92;;;1.75;;
29422;SDS011;16399;51.686;8.684;2023-09-18T08:51:06;6.75;;;1.50;;
29422;SDS011;16399;51.686;8.684;2023-09-18T08:54:09;8.48;;;1.62;;
29422;SDS011;16399;51.686;8.684;2023-09-18T08:57:12;7.22;;;1.80;;
29422;SDS011;16399;51.686;8.684;2023-09-18T09:03:37;6.67;;;1.65;;
29422;SDS011;16399;51.686;8.684;2023-09-18T09:06:41;7.08;;;2.00;;
29422;SDS011;16399;51.686;8.684;2023-09-18T09:09:44;8.48;;;1.82;;
29422;SDS011;16399;51.686;8.684;2023-09-18T09:12:57;8.83;;;1.73;;
29422;SDS011;16399;51.686;8.684;2023-09-18T09:16:02;6.90;;;2.02;;
29422;SDS011;16399;51.686;8.684;2023-09-18T09:19:04;6.17;;;1.45;;
29422;SDS011;16399;51.686;8.684;2023-09-18T09:22:08;7.28;;;1.52;;
29422;SDS011;16399;51.686;8.684;2023-09-18T09:25:23;14.95;;;2.87;;
29422;SDS011;16399;51.686;8.684;2023-09-18T09:28:47;6.00;;;1.37;;
29422;SDS011;16399;51.686;8.684;2023-09-18T09:31:50;7.13;;;2.37;;
29422;SDS011;16399;51.686;8.684;2023-09-18T09:34:52;4.22;;;1.52;;
29422;SDS011;16399;51.686;8.684;2023-09-18T09:38:00;3.05;;;1.10;;
29422;SDS011;16399;51.686;8.684;2023-09-18T09:41:04;6.17;;;1.30;;
29422;SDS011;16399;51.686;8.684;2023-09-18T09:44:07;6.20;;;1.40;;
29422;SDS011;16399;51.686;8.684;2023-09-18T09:47:09;3.30;;;1.15;;
29422;SDS011;16399;51.686;8.684;2023-09-18T09:50:13;5.90;;;1.20;;
29422;SDS011;16399;51.686;8.684;2023-09-18T09:53:18;3.95;;;1.10;;
29422;SDS011;16399;51.686;8.684;2023-09-18T09:56:21;5.28;;;1.30;;
29422;SDS011;16399;51.686;8.684;2023-09-18T09:59:23;4.37;;;1.30;;
29422;SDS011;16399;51.686;8.684;2023-09-18T10:02:26;6.22;;;1.25;;
29422;SDS011;16399;51.686;8.684;2023-09-18T10:05:35;5.53;;;1.20;;
29422;SDS011;16399;51.686;8.684;2023-09-18T10:08:34;7.60;;;1.15;;
29422;SDS011;16399;51.686;8.684;2023-09-18T10:11:43;6.45;;;1.30;;
29422;SDS011;16399;51.686;8.684;2023-09-18T10:14:47;4.12;;;1.30;;
29422;SDS011;16399;51.686;8.684;2023-09-18T10:17:53;5.08;;;1.42;;
29422;SDS011;16399;51.686;8.684;2023-09-18T10:21:10;7.08;;;1.20;;
29422;SDS011;16399;51.686;8.684;2023-09-18T10:27:27;6.80;;;1.92;;
29422;SDS011;16399;51.686;8.684;2023-09-18T10:30:29;5.83;;;1.07;;
29422;SDS011;16399;51.686;8.684;2023-09-18T10:33:35;5.80;;;1.30;;
29422;SDS011;16399;51.686;8.684;2023-09-18T10:36:40;5.03;;;1.35;;
29422;SDS011;16399;51.686;8.684;2023-09-18T10:39:44;6.10;;;1.57;;
29422;SDS011;16399;51.686;8.684;2023-09-18T10:42:50;3.67;;;1.50;;
29422;SDS011;16399;51.686;8.684;2023-09-18T10:45:53;3.92;;;1.80;;
29422;SDS011;16399;51.686;8.684;2023-09-18T10:48:56;7.95;;;1.65;;
29422;SDS011;16399;51.686;8.684;2023-09-18T10:52:00;4.95;;;1.27;;
29422;SDS011;16399;51.686;8.684;2023-09-18T10:55:04;6.28;;;1.52;;
29422;SDS011;16399;51.686;8.684;2023-09-18T10:58:08;5.80;;;1.02;;
29422;SDS011;16399;51.686;8.684;2023-09-18T11:01:13;4.90;;;1.15;;
29422;SDS011;16399;51.686;8.684;2023-09-18T11:04:19;4.92;;;1.12;;
29422;SDS011;16399;51.686;8.684;2023-09-18T11:07:22;4.25;;;1.10;;
29422;SDS011;16399;51.686;8.684;2023-09-18T11:10:25;3.83;;;1.30;;
29422;SDS011;16399;51.686;8.684;2023-09-18T11:13:28;2.60;;;1.20;;
29422;SDS011;16399;51.686;8.684;2023-09-18T11:16:51;5.20;;;1.20;;
29422;SDS011;16399;51.686;8.684;2023-09-18T11:20:37;8.70;;;1.35;;
29422;SDS011;16399;51.686;8.684;2023-09-18T11:26:19;7.50;;;1.55;;
29422;SDS011;16399;51.686;8.684;2023-09-18T11:29:22;7.62;;;1.35;;
29422;SDS011;16399;51.686;8.684;2023-09-18T11:32:37;5.08;;;1.27;;
29422;SDS011;16399;51.686;8.684;2023-09-18T11:35:50;8.43;;;1.37;;
29422;SDS011;16399;51.686;8.684;2023-09-18T11:38:55;5.10;;;1.40;;
29422;SDS011;16399;51.686;8.684;2023-09-18T11:42:10;4.10;;;1.10;;
29422;SDS011;16399;51.686;8.684;2023-09-18T11:45:22;2.75;;;1.10;;
29422;SDS011;16399;51.686;8.684;2023-09-18T11:48:24;4.72;;;1.17;;
29422;SDS011;16399;51.686;8.684;2023-09-18T11:51:31;2.92;;;1.30;;
29422;SDS011;16399;51.686;8.684;2023-09-18T11:54:34;5.17;;;1.12;;
29422;SDS011;16399;51.686;8.684;2023-09-18T11:57:36;4.20;;;1.20;;
29422;SDS011;16399;51.686;8.684;2023-09-18T12:00:41;3.50;;;1.37;;
29422;SDS011;16399;51.686;8.684;2023-09-18T12:03:46;3.70;;;1.20;;
29422;SDS011;16399;51.686;8.684;2023-09-18T12:06:57;4.90;;;1.35;;
29422;SDS011;16399;51.686;8.684;2023-09-18T12:10:06;3.77;;;1.00;;
29422;SDS011;16399;51.686;8.684;2023-09-18T12:13:10;4.70;;;1.45;;
29422;SDS011;16399;51.686;8.684;2023-09-18T12:16:13;6.37;;;1.52;;
29422;SDS011;16399;51.686;8.684;2023-09-18T12:19:17;4.60;;;1.20;;
29422;SDS011;16399;51.686;8.684;2023-09-18T12:22:23;3.60;;;1.10;;
29422;SDS011;16399;51.686;8.684;2023-09-18T12:28:28;6.87;;;1.30;;
29422;SDS011;16399;51.686;8.684;2023-09-18T12:31:31;3.20;;;1.00;;
29422;SDS011;16399;51.686;8.684;2023-09-18T12:34:33;4.47;;;1.40;;
29422;SDS011;16399;51.686;8.684;2023-09-18T12:37:40;3.17;;;1.00;;
29422;SDS011;16399;51.686;8.684;2023-09-18T12:40:43;3.58;;;1.30;;
29422;SDS011;16399;51.686;8.684;2023-09-18T12:43:47;4.00;;;1.60;;
29422;SDS011;16399;51.686;8.684;2023-09-18T12:46:49;3.72;;;1.00;;
29422;SDS011;16399;51.686;8.684;2023-09-18T12:49:52;3.37;;;1.20;;
29422;SDS011;16399;51.686;8.684;2023-09-18T12:53:10;4.58;;;1.30;;
29422;SDS011;16399;51.686;8.684;2023-09-18T12:56:14;3.05;;;1.30;;
29422;SDS011;16399;51.686;8.684;2023-09-18T12:59:16;5.30;;;1.27;;
29422;SDS011;16399;51.686;8.684;2023-09-18T13:02:19;5.35;;;1.75;;
29422;SDS011;16399;51.686;8.684;2023-09-18T13:05:22;4.33;;;1.27;;
29422;SDS011;16399;51.686;8.684;2023-09-18T13:08:27;9.30;;;1.95;;
29422;SDS011;16399;51.686;8.684;2023-09-18T13:11:30;3.95;;;1.20;;
29422;SDS011;16399;51.686;8.684;2023-09-18T13:18:10;4.33;;;1.00;;
29422;SDS011;16399;51.686;8.684;2023-09-18T13:21:13;5.62;;;1.12;;
29422;SDS011;16399;51.686;8.684;2023-09-18T13:24:31;3.25;;;1.30;;
29422;SDS011;16399;51.686;8.684;2023-09-18T13:27:33;4.22;;;1.30;;
29422;SDS011;16399;51.686;8.684;2023-09-18T13:30:36;3.42;;;1.02;;
29422;SDS011;16399;51.686;8.684;2023-09-18T13:33:42;1.75;;;1.00;;
29422;SDS011;16399;51.686;8.684;2023-09-18T13:36:45;5.53;;;1.20;;
29422;SDS011;16399;51.686;8.684;2023-09-18T13:39:47;6.95;;;1.12;;
29422;SDS011;16399;51.686;8.684;2023-09-18T13:42:49;4.25;;;1.77;;
29422;SDS011;16399;51.686;8.684;2023-09-18T13:45:52;4.25;;;1.22;;
29422;SDS011;16399;51.686;8.684;2023-09-18T13:48:55;4.80;;;1.10;;
29422;SDS011;16399;51.686;8.684;2023-09-18T13:51:58;2.55;;;1.12;;
29422;SDS011;16399;51.686;8.684;2023-09-18T13:55:01;4.92;;;0.98;;
29422;SDS011;16399;51.686;8.684;2023-09-18T13:58:07;2.72;;;1.10;;
29422;SDS011;16399;51.686;8.684;2023-09-18T14:01:09;3.67;;;1.62;;
29422;SDS011;16399;51.686;8.684;2023-09-18T14:04:12;1.72;;;0.82;;
29422;SDS011;16399;51.686;8.684;2023-09-18T14:07:15;2.50;;;1.10;;
29422;SDS011;16399;51.686;8.684;2023-09-18T14:10:17;5.17;;;1.10;;
29422;SDS011;16399;51.686;8.684;2023-09-18T14:13:21;2.40;;;1.03;;
29422;SDS011;16399;51.686;8.684;2023-09-18T14:16:23;2.62;;;1.00;;
29422;SDS011;16399;51.686;8.684;2023-09-18T14:19:26;3.83;;;1.00;;
29422;SDS011;16399;51.686;8.684;2023-09-18T14:22:29;2.00;;;0.88;;
29422;SDS011;16399;51.686;8.684;2023-09-18T14:25:32;2.08;;;1.00;;
29422;SDS011;16399;51.686;8.684;2023-09-18T14:28:35;4.53;;;1.20;;
29422;SDS011;16399;51.686;8.684;2023-09-18T14:31:37;5.90;;;1.10;;
29422;SDS011;16399;51.686;8.684;2023-09-18T14:34:40;3.08;;;1.00;;
29422;SDS011;16399;51.686;8.684;2023-09-18T14:37:43;3.72;;;1.20;;
29422;SDS011;16399;51.686;8.684;2023-09-18T14:40:45;3.33;;;1.10;;
29422;SDS011;16399;51.686;8.684;2023-09-18T14:43:47;2.70;;;1.12;;
29422;SDS011;16399;51.686;8.684;2023-09-18T14:46:50;3.27;;;0.95;;
29422;SDS011;16399;51.686;8.684;2023-09-18T14:49:53;3.50;;;1.30;;
29422;SDS011;16399;51.686;8.684;2023-09-18T14:52:55;3.05;;;1.02;;
29422;SDS011;16399;51.686;8.684;2023-09-18T14:55:58;3.72;;;1.17;;
29422;SDS011;16399;51.686;8.684;2023-09-18T14:59:01;5.15;;;1.47;;
29422;SDS011;16399;51.686;8.684;2023-09-18T15:02:05;5.55;;;1.00;;
29422;SDS011;16399;51.686;8.684;2023-09-18T15:05:08;3.10;;;1.10;;
29422;SDS011;16399;51.686;8.684;2023-09-18T15:08:12;3.12;;;1.10;;
29422;SDS011;16399;51.686;8.684;2023-09-18T15:11:16;3.77;;;1.30;;
29422;SDS011;16399;51.686;8.684;2023-09-18T15:14:19;4.33;;;1.07;;
29422;SDS011;16399;51.686;8.684;2023-09-18T15:17:21;2.22;;;1.07;;
29422;SDS011;16399;51.686;8.684;2023-09-18T15:20:26;3.02;;;1.07;;
29422;SDS011;16399;51.686;8.684;2023-09-18T15:23:28;2.33;;;1.00;;
29422;SDS011;16399;51.686;8.684;2023-09-18T15:26:31;2.30;;;1.00;;
29422;SDS011;16399;51.686;8.684;2023-09-18T15:29:33;3.37;;;1.22;;
29422;SDS011;16399;51.686;8.684;2023-09-18T15:32:45;2.92;;;1.07;;
29422;SDS011;16399;51.686;8.684;2023-09-18T15:35:53;3.42;;;1.22;;
29422;SDS011;16399;51.686;8.684;2023-09-18T15:38:56;4.30;;;1.15;;
29422;SDS011;16399;51.686;8.684;2023-09-18T15:41:59;3.98;;;1.30;;
29422;SDS011;16399;51.686;8.684;2023-09-18T15:45:01;2.85;;;0.93;;
29422;SDS011;16399;51.686;8.684;2023-09-18T15:48:04;3.17;;;1.10;;
29422;SDS011;16399;51.686;8.684;2023-09-18T15:51:06;4.12;;;1.10;;
29422;SDS011;16399;51.686;8.684;2023-09-18T15:54:10;2.83;;;1.20;;
29422;SDS011;16399;51.686;8.684;2023-09-18T15:57:13;6.08;;;1.30;;
29422;SDS011;16399;51.686;8.684;2023-09-18T16:00:15;2.65;;;1.00;;
29422;SDS011;16399;51.686;8.684;2023-09-18T16:03:18;2.55;;;1.05;;
29422;SDS011;16399;51.686;8.684;2023-09-18T16:06:20;3.52;;;1.25;;
29422;SDS011;16399;51.686;8.684;2023-09-18T16:09:22;3.17;;;0.90;;
29422;SDS011;16399;51.686;8.684;2023-09-18T16:12:25;2.27;;;1.15;;
29422;SDS011;16399;51.686;8.684;2023-09-18T16:15:28;2.52;;;1.05;;
29422;SDS011;16399;51.686;8.684;2023-09-18T16:18:32;3.67;;;1.57;;
29422;SDS011;16399;51.686;8.684;2023-09-18T16:21:34;2.80;;;1.35;;
29422;SDS011;16399;51.686;8.684;2023-09-18T16:24:37;3.98;;;1.62;;
29422;SDS011;16399;51.686;8.684;2023-09-18T16:27:39;2.17;;;1.07;;
29422;SDS011;16399;51.686;8.684;2023-09-18T16:30:43;2.33;;;1.20;;
29422;SDS011;16399;51.686;8.684;2023-09-18T16:33:46;3.50;;;1.17;;
29422;SDS011;16399;51.686;8.684;2023-09-18T16:36:49;3.08;;;1.10;;
29422;SDS011;16399;51.686;8.684;2023-09-18T16:39:52;6.33;;;1.55;;
29422;SDS011;16399;51.686;8.684;2023-09-18T16:42:54;3.02;;;1.30;;
29422;SDS011;16399;51.686;8.684;2023-09-18T16:45:56;4.03;;;1.32;;
29422;SDS011;16399;51.686;8.684;2023-09-18T16:48:58;3.55;;;1.30;;
29422;SDS011;16399;51.686;8.684;2023-09-18T16:52:01;2.60;;;1.15;;
29422;SDS011;16399;51.686;8.684;2023-09-18T16:55:04;3.93;;;1.30;;
29422;SDS011;16399;51.686;8.684;2023-09-18T16:58:07;4.90;;;1.30;;
29422;SDS011;16399;51.686;8.684;2023-09-18T17:01:09;2.98;;;1.10;;
29422;SDS011;16399;51.686;8.684;2023-09-18T17:04:12;2.15;;;1.15;;
29422;SDS011;16399;51.686;8.684;2023-09-18T17:07:15;1.98;;;1.10;;
29422;SDS011;16399;51.686;8.684;2023-09-18T17:10:17;4.70;;;1.30;;
29422;SDS011;16399;51.686;8.684;2023-09-18T17:13:20;3.95;;;1.30;;
29422;SDS011;16399;51.686;8.684;2023-09-18T17:16:23;3.72;;;1.47;;
29422;SDS011;16399;51.686;8.684;2023-09-18T17:19:26;4.40;;;1.20;;
29422;SDS011;16399;51.686;8.684;2023-09-18T17:22:28;2.52;;;1.20;;
29422;SDS011;16399;51.686;8.684;2023-09-18T17:25:32;3.72;;;1.15;;
29422;SDS011;16399;51.686;8.684;2023-09-18T17:28:37;2.65;;;1.17;;
29422;SDS011;16399;51.686;8.684;2023-09-18T17:31:40;3.47;;;1.20;;
29422;SDS011;16399;51.686;8.684;2023-09-18T17:34:42;6.65;;;1.20;;
29422;SDS011;16399;51.686;8.684;2023-09-18T17:37:46;4.85;;;1.40;;
29422;SDS011;16399;51.686;8.684;2023-09-18T17:40:48;3.83;;;1.30;;
29422;SDS011;16399;51.686;8.684;2023-09-18T17:43:50;4.17;;;1.25;;
29422;SDS011;16399;51.686;8.684;2023-09-18T17:46:53;6.80;;;1.40;;
29422;SDS011;16399;51.686;8.684;2023-09-18T17:49:56;5.92;;;1.47;;
29422;SDS011;16399;51.686;8.684;2023-09-18T17:52:58;4.22;;;1.30;;
29422;SDS011;16399;51.686;8.684;2023-09-18T17:56:01;5.03;;;2.03;;
29422;SDS011;16399;51.686;8.684;2023-09-18T17:59:04;2.75;;;1.40;;
29422;SDS011;16399;51.686;8.684;2023-09-18T18:02:07;4.00;;;2.02;;
29422;SDS011;16399;51.686;8.684;2023-09-18T18:05:10;2.67;;;1.20;;
29422;SDS011;16399;51.686;8.684;2023-09-18T18:08:12;5.65;;;1.30;;
29422;SDS011;16399;51.686;8.684;2023-09-18T18:11:14;3.55;;;1.37;;
29422;SDS011;16399;51.686;8.684;2023-09-18T18:14:16;4.95;;;1.75;;
29422;SDS011;16399;51.686;8.684;2023-09-18T18:17:19;4.45;;;1.62;;
29422;SDS011;16399;51.686;8.684;2023-09-18T18:20:21;3.15;;;1.40;;
29422;SDS011;16399;51.686;8.684;2023-09-18T18:23:23;7.00;;;1.20;;
29422;SDS011;16399;51.686;8.684;2023-09-18T18:26:27;4.92;;;1.35;;
29422;SDS011;16399;51.686;8.684;2023-09-18T18:29:29;5.07;;;1.40;;
29422;SDS011;16399;51.686;8.684;2023-09-18T18:32:32;3.75;;;1.52;;
29422;SDS011;16399;51.686;8.684;2023-09-18T18:35:34;3.90;;;1.45;;
29422;SDS011;16399;51.686;8.684;2023-09-18T18:38:38;5.03;;;1.60;;
29422;SDS011;16399;51.686;8.684;2023-09-18T18:41:41;7.22;;;1.50;;
29422;SDS011;16399;51.686;8.684;2023-09-18T18:44:43;6.42;;;1.77;;